createdAt,value
2023-05-09T00:00:34.205Z,95197.00
2023-05-09T00:01:34.172Z,95197.00
2023-05-09T00:02:34.288Z,95199.00
2023-05-09T00:03:34.340Z,95197.00
2023-05-09T00:04:34.497Z,95197.00
2023-05-09T00:05:34.430Z,95195.00
2023-05-09T00:06:34.479Z,95193.00
2023-05-09T00:07:34.570Z,95193.00
2023-05-09T00:08:34.607Z,95193.00
2023-05-09T00:09:34.674Z,95193.00
2023-05-09T00:10:34.739Z,95191.00
2023-05-09T00:11:34.790Z,95191.00
2023-05-09T00:12:34.802Z,95189.00
2023-05-09T00:13:34.860Z,95185.00
2023-05-09T00:14:34.943Z,95183.00
2023-05-09T00:15:34.986Z,95181.00
2023-05-09T00:16:35.139Z,95179.00
2023-05-09T00:17:35.116Z,95175.00
2023-05-09T00:18:35.147Z,95177.00
2023-05-09T00:19:35.161Z,95175.00
2023-05-09T00:20:35.225Z,95173.00
2023-05-09T00:21:35.243Z,95175.00
2023-05-09T00:22:35.279Z,95175.00
2023-05-09T00:23:35.348Z,95175.00
2023-05-09T00:24:35.357Z,95175.00
2023-05-09T00:25:35.396Z,95177.00
2023-05-09T00:26:35.445Z,95177.00
2023-05-09T00:27:35.519Z,95177.00
2023-05-09T00:28:35.538Z,95177.00
2023-05-09T00:29:35.595Z,95177.00
2023-05-09T00:30:35.617Z,95175.00
2023-05-09T00:31:35.665Z,95175.00
2023-05-09T00:32:35.854Z,95173.00
2023-05-09T00:33:35.760Z,95175.00
2023-05-09T00:34:35.764Z,95173.00
2023-05-09T00:35:35.818Z,95171.00
2023-05-09T00:36:35.837Z,95173.00
2023-05-09T00:37:35.899Z,95168.00
2023-05-09T00:38:35.950Z,95173.00
2023-05-09T00:39:35.979Z,95168.00
2023-05-09T00:40:36.033Z,95171.00
2023-05-09T00:41:36.058Z,95166.00
2023-05-09T00:42:36.090Z,95168.00
2023-05-09T00:43:36.127Z,95164.00
2023-05-09T00:44:36.200Z,95166.00
2023-05-09T00:45:36.223Z,95164.00
2023-05-09T00:46:36.363Z,95162.00
2023-05-09T00:47:36.373Z,95162.00
2023-05-09T00:48:36.500Z,95160.00
2023-05-09T00:49:36.460Z,95160.00
2023-05-09T00:50:36.490Z,95160.00
2023-05-09T00:51:36.525Z,95158.00
2023-05-09T00:52:36.536Z,95158.00
2023-05-09T00:53:36.583Z,95156.00
2023-05-09T00:54:36.596Z,95154.00
2023-05-09T00:55:36.632Z,95146.00
2023-05-09T00:56:36.707Z,95154.00
2023-05-09T00:57:36.708Z,95154.00
2023-05-09T00:58:36.716Z,95146.00
2023-05-09T00:59:36.790Z,95146.00
2023-05-09T01:00:36.793Z,95146.00
2023-05-09T01:01:36.858Z,95144.00
2023-05-09T01:02:36.974Z,95144.00
2023-05-09T01:03:36.970Z,95142.00
2023-05-09T01:04:37.051Z,95142.00
2023-05-09T01:05:37.001Z,95142.00
2023-05-09T01:06:37.075Z,95142.00
2023-05-09T01:07:37.133Z,95140.00
2023-05-09T01:08:37.139Z,95138.00
2023-05-09T01:09:37.140Z,95140.00
2023-05-09T01:10:37.180Z,95136.00
2023-05-09T01:11:37.195Z,95136.00
2023-05-09T01:12:37.184Z,95136.00
2023-05-09T01:13:37.200Z,95136.00
2023-05-09T01:14:37.203Z,95134.00
2023-05-09T01:15:37.303Z,95136.00
2023-05-09T01:16:37.281Z,95134.00
2023-05-09T01:17:37.306Z,95136.00
2023-05-09T01:18:37.320Z,95134.00
2023-05-09T01:19:37.365Z,95132.00
2023-05-09T01:20:37.508Z,95128.00
2023-05-09T01:21:37.421Z,95130.00
2023-05-09T01:22:37.473Z,95130.00
2023-05-09T01:23:37.499Z,95126.00
2023-05-09T01:24:37.542Z,95128.00
2023-05-09T01:25:37.581Z,95126.00
2023-05-09T01:26:37.633Z,95126.00
2023-05-09T01:27:37.636Z,95126.00
2023-05-09T01:28:37.671Z,95124.00
2023-05-09T01:29:37.676Z,95124.00
2023-05-09T01:30:37.728Z,95126.00
2023-05-09T01:31:37.719Z,95126.00
2023-05-09T01:32:37.811Z,95128.00
2023-05-09T01:33:37.781Z,95130.00
2023-05-09T01:34:37.824Z,95130.00
2023-05-09T01:35:37.878Z,95128.00
2023-05-09T01:36:37.960Z,95130.00
2023-05-09T01:37:37.867Z,95126.00
2023-05-09T01:38:37.888Z,95128.00
2023-05-09T01:39:37.918Z,95128.00
2023-05-09T01:40:37.943Z,95126.00
2023-05-09T01:41:37.992Z,95126.00
2023-05-09T01:42:37.942Z,95126.00
2023-05-09T01:43:38.016Z,95126.00
2023-05-09T01:44:37.985Z,95128.00
2023-05-09T01:45:38.012Z,95126.00
2023-05-09T01:46:38.043Z,95128.00
2023-05-09T01:47:38.040Z,95124.00
2023-05-09T01:48:38.060Z,95126.00
2023-05-09T01:49:38.043Z,95128.00
2023-05-09T01:50:38.025Z,95124.00
2023-05-09T01:51:38.048Z,95128.00
2023-05-09T01:52:38.134Z,95122.00
2023-05-09T01:53:38.051Z,95122.00
2023-05-09T01:54:38.019Z,95124.00
2023-05-09T01:55:38.024Z,95124.00
2023-05-09T01:56:38.025Z,95122.00
2023-05-09T01:57:38.052Z,95124.00
2023-05-09T01:58:38.061Z,95122.00
2023-05-09T01:59:38.019Z,95122.00
2023-05-09T02:00:38.095Z,95122.00
2023-05-09T02:01:38.080Z,95122.00
2023-05-09T02:02:38.120Z,95120.00
2023-05-09T02:03:38.048Z,95118.00
2023-05-09T02:04:38.040Z,95118.00
2023-05-09T02:05:38.084Z,95116.00
2023-05-09T02:06:38.045Z,95116.00
2023-05-09T02:07:38.046Z,95116.00
2023-05-09T02:08:38.109Z,95116.00
2023-05-09T02:09:38.024Z,95116.00
2023-05-09T02:10:38.022Z,95116.00
2023-05-09T02:11:38.026Z,95113.00
2023-05-09T02:12:38.011Z,95118.00
2023-05-09T02:13:38.037Z,95116.00
2023-05-09T02:14:38.044Z,95115.00
2023-05-09T02:15:38.068Z,95116.00
2023-05-09T02:16:38.172Z,95115.00
2023-05-09T02:17:38.190Z,95116.00
2023-05-09T02:18:38.157Z,95111.00
2023-05-09T02:19:38.117Z,95109.00
2023-05-09T02:20:38.152Z,95109.00
2023-05-09T02:21:38.149Z,95109.00
2023-05-09T02:22:38.170Z,95109.00
2023-05-09T02:23:38.110Z,95109.00
2023-05-09T02:24:38.219Z,95107.00
2023-05-09T02:25:38.170Z,95109.00
2023-05-09T02:26:38.199Z,95107.00
2023-05-09T02:27:38.147Z,95109.00
2023-05-09T02:28:38.146Z,95107.00
2023-05-09T02:29:38.148Z,95105.00
2023-05-09T02:30:38.160Z,95103.00
2023-05-09T02:31:38.242Z,95105.00
2023-05-09T02:32:38.277Z,95103.00
2023-05-09T02:33:38.229Z,95101.00
2023-05-09T02:34:38.259Z,95101.00
2023-05-09T02:35:38.257Z,95099.00
2023-05-09T02:36:38.307Z,95099.00
2023-05-09T02:37:38.272Z,95097.00
2023-05-09T02:38:38.255Z,95095.00
2023-05-09T02:39:38.280Z,95097.00
2023-05-09T02:40:38.381Z,95097.00
2023-05-09T02:41:38.284Z,95099.00
2023-05-09T02:42:38.282Z,95097.00
2023-05-09T02:43:38.286Z,95097.00
2023-05-09T02:44:38.261Z,95097.00
2023-05-09T02:45:38.271Z,95099.00
2023-05-09T02:46:38.236Z,95099.00
2023-05-09T02:47:38.281Z,95099.00
2023-05-09T02:48:38.274Z,95097.00
2023-05-09T02:49:38.303Z,95095.00
2023-05-09T02:50:38.555Z,95093.00
2023-05-09T02:51:38.302Z,95095.00
2023-05-09T02:52:38.277Z,95091.00
2023-05-09T02:53:38.317Z,95093.00
2023-05-09T02:54:38.344Z,95093.00
2023-05-09T02:55:38.377Z,95087.00
2023-05-09T02:56:38.423Z,95091.00
2023-05-09T02:57:38.346Z,95089.00
2023-05-09T02:58:38.361Z,95091.00
2023-05-09T02:59:38.334Z,95089.00
2023-05-09T03:00:38.351Z,95089.00
2023-05-09T03:01:38.372Z,95087.00
2023-05-09T03:02:38.622Z,95089.00
2023-05-09T03:03:38.439Z,95089.00
2023-05-09T03:04:38.358Z,95087.00
2023-05-09T03:05:38.335Z,95085.00
2023-05-09T03:06:38.347Z,95085.00
2023-05-09T03:07:38.328Z,95083.00
2023-05-09T03:08:38.369Z,95083.00
2023-05-09T03:09:39.871Z,95083.00
2023-05-09T03:10:38.410Z,95085.00
2023-05-09T03:11:38.342Z,95083.00
2023-05-09T03:12:38.380Z,95083.00
2023-05-09T03:13:38.453Z,95085.00
2023-05-09T03:14:38.288Z,95085.00
2023-05-09T03:15:38.313Z,95083.00
2023-05-09T03:16:38.314Z,95083.00
2023-05-09T03:17:38.320Z,95081.00
2023-05-09T03:18:38.284Z,95081.00
2023-05-09T03:19:38.267Z,95083.00
2023-05-09T03:20:38.221Z,95081.00
2023-05-09T03:21:38.277Z,95081.00
2023-05-09T03:22:38.259Z,95077.00
2023-05-09T03:23:38.621Z,95081.00
2023-05-09T03:24:38.217Z,95081.00
2023-05-09T03:25:38.232Z,95081.00
2023-05-09T03:26:38.241Z,95073.00
2023-05-09T03:27:38.219Z,95075.00
2023-05-09T03:28:38.305Z,95077.00
2023-05-09T03:29:38.233Z,95083.00
2023-05-09T03:30:38.176Z,95077.00
2023-05-09T03:31:38.355Z,95085.00
2023-05-09T03:32:38.255Z,95075.00
2023-05-09T03:33:38.188Z,95077.00
2023-05-09T03:34:38.159Z,95077.00
2023-05-09T03:35:38.143Z,95075.00
2023-05-09T03:36:38.154Z,95079.00
2023-05-09T03:37:38.152Z,95075.00
2023-05-09T03:38:38.121Z,95081.00
2023-05-09T03:39:38.126Z,95075.00
2023-05-09T03:40:38.123Z,95077.00
2023-05-09T03:41:38.101Z,95079.00
2023-05-09T03:42:38.112Z,95079.00
2023-05-09T03:43:38.132Z,95079.00
2023-05-09T03:44:38.188Z,95077.00
2023-05-09T03:45:38.063Z,95075.00
2023-05-09T03:46:38.130Z,95077.00
2023-05-09T03:47:38.107Z,95075.00
2023-05-09T03:48:38.093Z,95073.00
2023-05-09T03:49:38.099Z,95071.00
2023-05-09T03:50:38.039Z,95069.00
2023-05-09T03:51:39.857Z,95068.00
2023-05-09T03:52:38.055Z,95069.00
2023-05-09T03:53:38.015Z,95069.00
2023-05-09T03:54:38.031Z,95069.00
2023-05-09T03:55:38.029Z,95073.00
2023-05-09T03:56:38.015Z,95073.00
2023-05-09T03:57:38.004Z,95073.00
2023-05-09T03:58:38.017Z,95071.00
2023-05-09T03:59:37.966Z,95071.00
2023-05-09T04:00:38.072Z,95073.00
2023-05-09T04:01:40.072Z,95073.00
2023-05-09T04:02:38.023Z,95071.00
2023-05-09T04:03:38.075Z,95071.00
2023-05-09T04:04:37.961Z,95071.00
2023-05-09T04:05:37.990Z,95073.00
2023-05-09T04:06:38.038Z,95073.00
2023-05-09T04:07:38.017Z,95075.00
2023-05-09T04:08:38.053Z,95075.00
2023-05-09T04:09:38.114Z,95073.00
2023-05-09T04:10:38.101Z,95077.00
2023-05-09T04:11:38.117Z,95077.00
2023-05-09T04:12:38.118Z,95079.00
2023-05-09T04:13:38.167Z,95077.00
2023-05-09T04:14:38.189Z,95079.00
2023-05-09T04:15:38.177Z,95077.00
2023-05-09T04:16:38.365Z,95075.00
2023-05-09T04:17:38.309Z,95075.00
2023-05-09T04:18:38.265Z,95079.00
2023-05-09T04:19:38.261Z,95075.00
2023-05-09T04:20:38.276Z,95077.00
2023-05-09T04:21:38.307Z,95073.00
2023-05-09T04:22:38.361Z,95077.00
2023-05-09T04:23:38.357Z,95073.00
2023-05-09T04:24:38.410Z,95071.00
2023-05-09T04:25:38.427Z,95075.00
2023-05-09T04:26:38.528Z,95075.00
2023-05-09T04:27:38.487Z,95077.00
2023-05-09T04:28:38.608Z,95079.00
2023-05-09T04:29:38.603Z,95081.00
2023-05-09T04:30:38.657Z,95079.00
2023-05-09T04:31:38.724Z,95081.00
2023-05-09T04:32:38.796Z,95083.00
2023-05-09T04:33:38.700Z,95083.00
2023-05-09T04:34:38.740Z,95081.00
2023-05-09T04:35:38.792Z,95083.00
2023-05-09T04:36:38.751Z,95081.00
2023-05-09T04:37:38.766Z,95081.00
2023-05-09T04:38:38.765Z,95081.00
2023-05-09T04:39:38.814Z,95081.00
2023-05-09T04:40:38.848Z,95079.00
2023-05-09T04:41:38.866Z,95077.00
2023-05-09T04:42:38.899Z,95075.00
2023-05-09T04:43:38.834Z,95075.00
2023-05-09T04:44:38.906Z,95075.00
2023-05-09T04:45:38.876Z,95075.00
2023-05-09T04:46:38.941Z,95075.00
2023-05-09T04:47:38.982Z,95073.00
2023-05-09T04:48:38.979Z,95073.00
2023-05-09T04:49:38.946Z,95069.00
2023-05-09T04:50:38.953Z,95069.00
2023-05-09T04:51:38.929Z,95069.00
2023-05-09T04:52:38.929Z,95068.00
2023-05-09T04:53:38.947Z,95068.00
2023-05-09T04:54:38.955Z,95069.00
2023-05-09T04:55:38.985Z,95069.00
2023-05-09T04:56:39.006Z,95069.00
2023-05-09T04:57:38.984Z,95069.00
2023-05-09T04:58:39.004Z,95068.00
2023-05-09T04:59:39.001Z,95068.00
2023-05-09T05:00:39.013Z,95069.00
2023-05-09T05:01:39.063Z,95071.00
2023-05-09T05:02:39.120Z,95069.00
2023-05-09T05:03:39.067Z,95068.00
2023-05-09T05:04:39.173Z,95069.00
2023-05-09T05:05:39.049Z,95068.00
2023-05-09T05:06:39.063Z,95068.00
2023-05-09T05:07:39.055Z,95069.00
2023-05-09T05:08:39.071Z,95068.00
2023-05-09T05:09:39.060Z,95069.00
2023-05-09T05:10:39.164Z,95068.00
2023-05-09T05:11:40.420Z,95068.00
2023-05-09T05:12:39.098Z,95066.00
2023-05-09T05:13:39.044Z,95064.00
2023-05-09T05:14:39.076Z,95062.00
2023-05-09T05:15:39.033Z,95062.00
2023-05-09T05:16:39.147Z,95062.00
2023-05-09T05:17:39.035Z,95062.00
2023-05-09T05:18:39.032Z,95064.00
2023-05-09T05:19:39.036Z,95064.00
2023-05-09T05:20:39.194Z,95060.00
2023-05-09T05:21:38.998Z,95062.00
2023-05-09T05:22:39.016Z,95062.00
2023-05-09T05:23:39.014Z,95062.00
2023-05-09T05:24:38.995Z,95060.00
2023-05-09T05:25:38.980Z,95062.00
2023-05-09T05:26:38.966Z,95062.00
2023-05-09T05:27:38.995Z,95062.00
2023-05-09T05:28:38.945Z,95066.00
2023-05-09T05:29:38.950Z,95068.00
2023-05-09T05:30:38.951Z,95064.00
2023-05-09T05:31:38.989Z,95066.00
2023-05-09T05:32:38.949Z,95066.00
2023-05-09T05:33:38.943Z,95064.00
2023-05-09T05:34:38.920Z,95066.00
2023-05-09T05:35:38.897Z,95066.00
2023-05-09T05:36:38.984Z,95068.00
2023-05-09T05:37:38.854Z,95068.00
2023-05-09T05:38:38.901Z,95069.00
2023-05-09T05:39:38.841Z,95071.00
2023-05-09T05:40:38.994Z,95071.00
2023-05-09T05:41:38.936Z,95071.00
2023-05-09T05:42:38.835Z,95071.00
2023-05-09T05:43:38.845Z,95071.00
2023-05-09T05:44:38.854Z,95068.00
2023-05-09T05:45:39.012Z,95093.00
2023-05-09T05:46:39.704Z,95091.00
2023-05-09T05:47:38.919Z,95091.00
2023-05-09T05:48:38.798Z,95089.00
2023-05-09T05:49:38.845Z,95071.00
2023-05-09T05:50:38.940Z,95069.00
2023-05-09T05:51:38.802Z,95069.00
2023-05-09T05:52:38.885Z,95066.00
2023-05-09T05:53:38.785Z,95066.00
2023-05-09T05:54:38.781Z,95068.00
2023-05-09T05:55:38.770Z,95066.00
2023-05-09T05:56:38.794Z,95068.00
2023-05-09T05:57:38.728Z,95068.00
2023-05-09T05:58:38.743Z,95066.00
2023-05-09T05:59:38.750Z,95064.00
2023-05-09T06:00:38.710Z,95066.00
2023-05-09T06:01:38.840Z,95066.00
2023-05-09T06:02:38.959Z,95064.00
2023-05-09T06:03:38.804Z,95066.00
2023-05-09T06:04:38.723Z,95064.00
2023-05-09T06:05:38.719Z,95062.00
2023-05-09T06:06:38.716Z,95060.00
2023-05-09T06:07:38.674Z,95058.00
2023-05-09T06:08:38.782Z,95056.00
2023-05-09T06:09:38.652Z,95060.00
2023-05-09T06:10:38.825Z,95058.00
2023-05-09T06:11:38.668Z,95056.00
2023-05-09T06:12:38.679Z,95056.00
2023-05-09T06:13:38.682Z,95056.00
2023-05-09T06:14:38.712Z,95056.00
2023-05-09T06:15:38.720Z,95054.00
2023-05-09T06:16:38.725Z,95054.00
2023-05-09T06:17:38.765Z,95054.00
2023-05-09T06:18:38.821Z,95054.00
2023-05-09T06:19:38.721Z,95052.00
2023-05-09T06:20:38.734Z,95054.00
2023-05-09T06:21:38.750Z,95050.00
2023-05-09T06:22:38.752Z,95052.00
2023-05-09T06:23:42.497Z,95050.00
2023-05-09T06:24:39.856Z,95052.00
2023-05-09T06:25:38.770Z,95054.00
2023-05-09T06:26:38.882Z,95054.00
2023-05-09T06:27:38.733Z,95052.00
2023-05-09T06:28:38.801Z,95058.00
2023-05-09T06:29:38.776Z,95058.00
2023-05-09T06:30:38.752Z,95054.00
2023-05-09T06:31:39.126Z,95052.00
2023-05-09T06:32:38.806Z,95050.00
2023-05-09T06:33:38.719Z,95048.00
2023-05-09T06:34:38.681Z,95044.00
2023-05-09T06:35:38.803Z,95044.00
2023-05-09T06:36:38.777Z,95042.00
2023-05-09T06:37:38.698Z,95038.00
2023-05-09T06:38:38.650Z,95040.00
2023-05-09T06:39:38.674Z,95038.00
2023-05-09T06:40:38.670Z,95036.00
2023-05-09T06:41:38.624Z,95040.00
2023-05-09T06:42:38.687Z,95042.00
2023-05-09T06:43:38.641Z,95042.00
2023-05-09T06:44:38.925Z,95040.00
2023-05-09T06:45:38.600Z,95038.00
2023-05-09T06:46:38.720Z,95036.00
2023-05-09T06:47:38.889Z,95038.00
2023-05-09T06:48:38.744Z,95058.00
2023-05-09T06:49:38.806Z,95060.00
2023-05-09T06:50:38.906Z,95058.00
2023-05-09T06:51:38.950Z,95060.00
2023-05-09T06:52:38.957Z,95060.00
2023-05-09T06:53:39.022Z,95060.00
2023-05-09T06:54:39.057Z,95058.00
2023-05-09T06:55:39.001Z,95056.00
2023-05-09T06:56:39.183Z,95058.00
2023-05-09T06:57:39.099Z,95054.00
2023-05-09T06:58:39.269Z,95052.00
2023-05-09T06:59:39.298Z,95056.00
2023-05-09T07:00:39.111Z,95054.00
2023-05-09T07:01:39.181Z,95052.00
2023-05-09T07:02:39.206Z,95050.00
2023-05-09T07:03:39.232Z,95054.00
2023-05-09T07:04:39.409Z,95050.00
2023-05-09T07:05:39.363Z,95052.00
2023-05-09T07:06:39.476Z,95052.00
2023-05-09T07:07:39.446Z,95054.00
2023-05-09T07:08:39.541Z,95052.00
2023-05-09T07:09:39.818Z,95052.00
2023-05-09T07:10:39.692Z,95050.00
2023-05-09T07:11:39.631Z,95050.00
2023-05-09T07:12:39.765Z,95050.00
2023-05-09T07:13:39.693Z,95048.00
2023-05-09T07:14:39.681Z,95048.00
2023-05-09T07:15:42.159Z,95046.00
2023-05-09T07:16:39.763Z,95050.00
2023-05-09T07:17:39.784Z,95044.00
2023-05-09T07:18:39.695Z,95046.00
2023-05-09T07:19:39.769Z,95042.00
2023-05-09T07:20:39.686Z,95038.00
2023-05-09T07:21:39.780Z,95042.00
2023-05-09T07:22:39.790Z,95038.00
2023-05-09T07:23:39.680Z,95036.00
2023-05-09T07:24:39.687Z,95034.00
2023-05-09T07:25:39.804Z,95030.00
2023-05-09T07:26:39.648Z,95034.00
2023-05-09T07:27:39.637Z,95032.00
2023-05-09T07:28:39.757Z,95028.00
2023-05-09T07:29:39.631Z,95032.00
2023-05-09T07:30:39.685Z,95032.00
2023-05-09T07:31:39.693Z,95032.00
2023-05-09T07:32:39.609Z,95034.00
2023-05-09T07:33:39.640Z,95032.00
2023-05-09T07:34:39.682Z,95028.00
2023-05-09T07:35:39.772Z,95007.00
2023-05-09T07:36:39.877Z,95003.00
2023-05-09T07:37:39.596Z,95026.00
2023-05-09T07:38:39.578Z,95021.00
2023-05-09T07:39:39.612Z,95003.00
2023-05-09T07:40:39.720Z,95009.00
2023-05-09T07:41:39.600Z,95021.00
2023-05-09T07:42:39.587Z,95017.00
2023-05-09T07:43:39.510Z,94997.00
2023-05-09T07:44:39.595Z,94997.00
2023-05-09T07:45:39.600Z,94995.00
2023-05-09T07:46:39.794Z,94995.00
2023-05-09T07:47:39.583Z,94993.00
2023-05-09T07:48:39.549Z,94993.00
2023-05-09T07:49:39.552Z,94987.00
2023-05-09T07:50:40.363Z,94989.00
2023-05-09T07:51:40.283Z,94989.00
2023-05-09T07:52:39.484Z,94985.00
2023-05-09T07:53:39.475Z,94983.00
2023-05-09T07:54:39.804Z,94983.00
2023-05-09T07:55:39.496Z,94981.00
2023-05-09T07:56:39.437Z,94979.00
2023-05-09T07:57:39.493Z,94981.00
2023-05-09T07:58:39.397Z,94981.00
2023-05-09T07:59:39.441Z,94977.00
2023-05-09T08:00:39.506Z,94977.00
2023-05-09T08:01:39.816Z,94977.00
2023-05-09T08:02:39.495Z,94979.00
2023-05-09T08:03:39.512Z,94975.00
2023-05-09T08:04:41.667Z,94974.00
2023-05-09T08:05:39.761Z,94972.00
2023-05-09T08:06:39.659Z,94968.00
2023-05-09T08:07:39.796Z,94966.00
2023-05-09T08:08:39.843Z,94962.00
2023-05-09T08:09:39.913Z,94966.00
2023-05-09T08:10:39.894Z,94962.00
2023-05-09T08:11:39.989Z,94960.00
2023-05-09T08:12:40.382Z,94960.00
2023-05-09T08:13:40.324Z,94960.00
2023-05-09T08:14:40.125Z,94962.00
2023-05-09T08:15:40.235Z,94960.00
2023-05-09T08:16:40.385Z,94962.00
2023-05-09T08:17:40.332Z,94956.00
2023-05-09T08:18:40.427Z,94954.00
2023-05-09T08:19:40.377Z,94952.00
2023-05-09T08:20:40.413Z,94948.00
2023-05-09T08:21:40.491Z,94944.00
2023-05-09T08:22:40.542Z,94942.00
2023-05-09T08:23:40.571Z,94936.00
2023-05-09T08:24:40.624Z,94940.00
2023-05-09T08:25:41.339Z,94936.00
2023-05-09T08:26:41.457Z,94936.00
2023-05-09T08:27:40.688Z,94934.00
2023-05-09T08:28:40.770Z,94932.00
2023-05-09T08:29:40.813Z,94928.00
2023-05-09T08:30:40.778Z,94926.00
2023-05-09T08:31:40.990Z,94928.00
2023-05-09T08:32:41.138Z,94926.00
2023-05-09T08:33:41.957Z,94920.00
2023-05-09T08:34:40.990Z,94920.00
2023-05-09T08:35:41.112Z,94917.00
2023-05-09T08:36:41.109Z,94917.00
2023-05-09T08:37:40.963Z,94913.00
2023-05-09T08:38:41.029Z,94909.00
2023-05-09T08:39:41.027Z,94911.00
2023-05-09T08:40:41.063Z,94903.00
2023-05-09T08:41:41.062Z,94901.00
2023-05-09T08:42:41.074Z,94899.00
2023-05-09T08:43:41.280Z,94899.00
2023-05-09T08:44:41.068Z,94897.00
2023-05-09T08:45:41.071Z,94899.00
2023-05-09T08:46:41.078Z,94889.00
2023-05-09T08:47:41.337Z,94889.00
2023-05-09T08:48:41.176Z,94897.00
2023-05-09T08:49:41.118Z,94889.00
2023-05-09T08:50:41.143Z,94887.00
2023-05-09T08:51:41.080Z,94883.00
2023-05-09T08:52:41.105Z,94881.00
2023-05-09T08:53:41.089Z,94881.00
2023-05-09T08:54:41.367Z,94879.00
2023-05-09T08:55:41.430Z,94877.00
2023-05-09T08:56:41.781Z,94879.00
2023-05-09T08:57:41.294Z,94877.00
2023-05-09T08:58:41.352Z,94875.00
2023-05-09T08:59:41.881Z,94879.00
2023-05-09T09:00:41.173Z,94879.00
2023-05-09T09:01:41.308Z,94875.00
2023-05-09T09:02:41.213Z,94872.00
2023-05-09T09:03:41.180Z,94872.00
2023-05-09T09:04:41.378Z,94868.00
2023-05-09T09:05:42.367Z,94864.00
2023-05-09T09:06:41.196Z,94866.00
2023-05-09T09:07:41.503Z,94862.00
2023-05-09T09:08:41.347Z,94854.00
2023-05-09T09:09:41.232Z,94852.00
2023-05-09T09:10:41.334Z,94850.00
2023-05-09T09:11:41.296Z,94852.00
2023-05-09T09:12:41.345Z,94848.00
2023-05-09T09:13:41.276Z,94848.00
2023-05-09T09:14:41.376Z,94846.00
2023-05-09T09:15:41.980Z,94844.00
2023-05-09T09:16:41.613Z,94844.00
2023-05-09T09:17:41.428Z,94840.00
2023-05-09T09:18:41.305Z,94834.00
2023-05-09T09:19:41.436Z,94832.00
2023-05-09T09:20:41.826Z,94832.00
2023-05-09T09:21:41.402Z,94828.00
2023-05-09T09:22:41.523Z,94827.00
2023-05-09T09:23:41.465Z,94830.00
2023-05-09T09:24:41.466Z,94832.00
2023-05-09T09:25:41.444Z,94828.00
2023-05-09T09:26:41.474Z,94830.00
2023-05-09T09:27:43.420Z,94828.00
2023-05-09T09:28:42.378Z,94828.00
2023-05-09T09:29:41.549Z,94823.00
2023-05-09T09:30:41.921Z,94821.00
2023-05-09T09:31:41.538Z,94840.00
2023-05-09T09:32:41.589Z,94817.00
2023-05-09T09:33:41.692Z,94811.00
2023-05-09T09:34:41.598Z,94834.00
2023-05-09T09:35:41.813Z,94828.00
2023-05-09T09:36:41.897Z,94827.00
2023-05-09T09:37:41.749Z,94827.00
2023-05-09T09:38:41.762Z,94821.00
2023-05-09T09:39:41.837Z,94819.00
2023-05-09T09:40:41.805Z,94817.00
2023-05-09T09:41:41.902Z,94815.00
2023-05-09T09:42:41.937Z,94815.00
2023-05-09T09:43:41.978Z,94811.00
2023-05-09T09:44:42.332Z,94809.00
2023-05-09T09:45:42.079Z,94805.00
2023-05-09T09:46:42.115Z,94803.00
2023-05-09T09:47:42.372Z,94801.00
2023-05-09T09:48:42.301Z,94799.00
2023-05-09T09:49:43.555Z,94797.00
2023-05-09T09:50:42.324Z,94795.00
2023-05-09T09:51:42.444Z,94795.00
2023-05-09T09:52:42.525Z,94797.00
2023-05-09T09:53:42.526Z,94793.00
2023-05-09T09:54:42.573Z,94791.00
2023-05-09T09:55:44.192Z,94787.00
2023-05-09T09:56:42.632Z,94787.00
2023-05-09T09:57:42.616Z,94783.00
2023-05-09T09:58:42.621Z,94781.00
2023-05-09T09:59:42.588Z,94780.00
2023-05-09T10:00:42.667Z,94776.00
2023-05-09T10:01:42.687Z,94774.00
2023-05-09T10:02:42.635Z,94774.00
2023-05-09T10:03:42.573Z,94772.00
2023-05-09T10:04:42.612Z,94768.00
2023-05-09T10:05:42.573Z,94768.00
2023-05-09T10:06:42.568Z,94764.00
2023-05-09T10:07:42.584Z,94762.00
2023-05-09T10:08:42.626Z,94762.00
2023-05-09T10:09:42.540Z,94709.00
2023-05-09T10:10:42.556Z,94707.00
2023-05-09T10:11:42.561Z,94707.00
2023-05-09T10:12:42.543Z,94705.00
2023-05-09T10:13:42.587Z,94703.00
2023-05-09T10:14:42.482Z,94703.00
2023-05-09T10:15:53.090Z,94701.00
2023-05-09T10:16:44.771Z,94699.00
2023-05-09T10:17:42.715Z,94695.00
2023-05-09T10:18:42.759Z,94695.00
2023-05-09T10:19:42.495Z,94691.00
2023-05-09T10:20:42.536Z,94689.00
2023-05-09T10:21:42.566Z,94687.00
2023-05-09T10:22:42.578Z,94683.00
2023-05-09T10:23:42.651Z,94681.00
2023-05-09T10:24:42.742Z,94679.00
2023-05-09T10:25:42.686Z,94678.00
2023-05-09T10:26:42.706Z,94676.00
2023-05-09T10:27:42.792Z,94672.00
2023-05-09T10:28:42.836Z,94668.00
2023-05-09T10:29:42.908Z,94668.00
2023-05-09T10:30:42.969Z,94664.00
2023-05-09T10:31:42.928Z,94662.00
2023-05-09T10:32:43.057Z,94664.00
2023-05-09T10:33:42.982Z,94664.00
2023-05-09T10:34:43.023Z,94662.00
2023-05-09T10:35:43.079Z,94662.00
2023-05-09T10:36:43.110Z,94658.00
2023-05-09T10:37:43.150Z,94658.00
2023-05-09T10:38:43.176Z,94656.00
2023-05-09T10:39:43.277Z,94652.00
2023-05-09T10:40:43.335Z,94652.00
2023-05-09T10:41:43.427Z,94652.00
2023-05-09T10:42:43.389Z,94650.00
2023-05-09T10:43:43.417Z,94646.00
2023-05-09T10:44:43.431Z,94642.00
2023-05-09T10:45:43.844Z,94633.00
2023-05-09T10:46:43.552Z,94633.00
2023-05-09T10:47:43.684Z,94629.00
2023-05-09T10:48:43.649Z,94629.00
2023-05-09T10:49:43.629Z,94625.00
2023-05-09T10:50:43.685Z,94621.00
2023-05-09T10:51:43.762Z,94625.00
2023-05-09T10:52:43.800Z,94621.00
2023-05-09T10:53:43.811Z,94617.00
2023-05-09T10:54:43.888Z,94617.00
2023-05-09T10:55:43.868Z,94611.00
2023-05-09T10:56:43.957Z,94609.00
2023-05-09T10:57:43.981Z,94607.00
2023-05-09T10:58:43.946Z,94605.00
2023-05-09T10:59:44.019Z,94601.00
2023-05-09T11:00:44.005Z,94599.00
2023-05-09T11:01:44.106Z,94595.00
2023-05-09T11:02:44.140Z,94593.00
2023-05-09T11:03:44.226Z,94591.00
2023-05-09T11:04:44.221Z,94587.00
2023-05-09T11:05:44.195Z,94581.00
2023-05-09T11:06:44.275Z,94583.00
2023-05-09T11:07:44.304Z,94579.00
2023-05-09T11:08:44.309Z,94579.00
2023-05-09T11:09:44.321Z,94574.00
2023-05-09T11:10:44.439Z,94574.00
2023-05-09T11:11:44.386Z,94572.00
2023-05-09T11:12:44.555Z,94570.00
2023-05-09T11:13:44.524Z,94568.00
2023-05-09T11:14:44.574Z,94562.00
2023-05-09T11:15:44.528Z,94562.00
2023-05-09T11:16:44.713Z,94562.00
2023-05-09T11:17:44.824Z,94560.00
2023-05-09T11:18:44.659Z,94570.00
2023-05-09T11:19:44.668Z,94556.00
2023-05-09T11:20:44.894Z,94552.00
2023-05-09T11:21:45.406Z,94552.00
2023-05-09T11:22:44.795Z,94544.00
2023-05-09T11:23:44.878Z,94544.00
2023-05-09T11:24:44.915Z,94544.00
2023-05-09T11:25:44.918Z,94542.00
2023-05-09T11:26:44.919Z,94539.00
2023-05-09T11:27:44.951Z,94537.00
2023-05-09T11:28:45.066Z,94533.00
2023-05-09T11:29:45.041Z,94529.00
2023-05-09T11:30:45.345Z,94527.00
2023-05-09T11:31:45.109Z,94525.00
2023-05-09T11:32:45.360Z,94523.00
2023-05-09T11:33:45.220Z,94523.00
2023-05-09T11:34:45.182Z,94521.00
2023-05-09T11:35:45.236Z,94519.00
2023-05-09T11:36:45.234Z,94519.00
2023-05-09T11:37:45.252Z,94521.00
2023-05-09T11:38:45.384Z,94521.00
2023-05-09T11:39:45.369Z,94519.00
2023-05-09T11:40:45.352Z,94521.00
2023-05-09T11:41:45.362Z,94517.00
2023-05-09T11:42:45.442Z,94513.00
2023-05-09T11:43:45.453Z,94507.00
2023-05-09T11:44:45.592Z,94507.00